createdAt,value
2022-09-29T00:01:22.202Z,2.15
2022-09-29T00:03:51.171Z,2.11
2022-09-29T00:06:19.949Z,2.09
2022-09-29T00:08:48.895Z,2.06
2022-09-29T00:11:19.913Z,2.01
2022-09-29T00:13:49.173Z,2.03
2022-09-29T00:16:18.052Z,1.97
2022-09-29T00:18:47.019Z,1.91
2022-09-29T00:21:20.261Z,1.81
2022-09-29T00:23:51.484Z,1.66
2022-09-29T00:26:23.212Z,1.57
2022-09-29T00:28:57.236Z,1.49
2022-09-29T00:31:27.412Z,1.43
2022-09-29T00:33:56.445Z,1.41
2022-09-29T00:36:26.216Z,1.40
2022-09-29T00:38:54.811Z,1.40
2022-09-29T00:41:26.848Z,1.41
2022-09-29T00:43:58.161Z,1.42
2022-09-29T00:46:47.088Z,1.39
2022-09-29T00:49:19.243Z,1.33
2022-09-29T00:51:57.564Z,1.28
2022-09-29T00:54:30.032Z,1.26
2022-09-29T00:57:02.701Z,1.18
2022-09-29T00:59:38.823Z,1.03
2022-09-29T01:02:08.039Z,0.92
2022-09-29T01:04:37.369Z,0.80
2022-09-29T01:07:06.156Z,0.78
2022-09-29T01:09:38.993Z,0.81
2022-09-29T01:12:07.875Z,0.84
2022-09-29T01:14:37.942Z,0.79
2022-09-29T01:17:07.353Z,0.75
2022-09-29T01:19:53.658Z,0.73
2022-09-29T01:22:38.255Z,0.71
2022-09-29T01:25:27.690Z,0.76
2022-09-29T01:28:26.581Z,0.81
2022-09-29T01:31:18.681Z,0.87
2022-09-29T01:34:08.017Z,1.06
2022-09-29T01:36:49.482Z,1.18
2022-09-29T01:39:27.694Z,1.27
2022-09-29T01:41:59.042Z,1.27
2022-09-29T01:44:46.535Z,1.29
2022-09-29T01:47:29.969Z,1.36
2022-09-29T01:50:07.209Z,1.47
2022-09-29T01:52:44.958Z,1.61
2022-09-29T01:55:18.829Z,1.73
2022-09-29T01:58:09.806Z,1.91
2022-09-29T02:00:44.174Z,2.03
2022-09-29T02:03:23.580Z,2.19
2022-09-29T02:05:56.816Z,2.33
2022-09-29T02:08:35.445Z,2.41
2022-09-29T02:11:15.123Z,2.45
2022-09-29T02:13:52.720Z,2.49
2022-09-29T02:16:26.888Z,2.55
2022-09-29T02:19:27.727Z,2.52
2022-09-29T02:21:58.075Z,2.53
2022-09-29T02:24:26.986Z,2.57
2022-09-29T02:26:56.780Z,2.36
2022-09-29T02:29:25.433Z,2.52
2022-09-29T02:31:55.993Z,2.51
2022-09-29T02:34:25.882Z,2.69
2022-09-29T02:37:28.181Z,2.93
2022-09-29T02:40:44.408Z,3.11
2022-09-29T02:43:24.965Z,3.44
2022-09-29T02:46:24.690Z,3.72
2022-09-29T02:49:20.289Z,3.95
2022-09-29T02:51:54.908Z,4.21
2022-09-29T02:54:40.016Z,4.45
2022-09-29T03:00:01.329Z,4.46
2022-09-29T03:02:32.375Z,4.40
2022-09-29T03:05:01.301Z,4.37
2022-09-29T03:07:31.396Z,4.36
2022-09-29T03:10:00.416Z,4.23
2022-09-29T03:12:28.972Z,4.06
2022-09-29T03:14:58.163Z,3.99
2022-09-29T03:17:27.703Z,3.77
2022-09-29T03:19:56.310Z,3.65
2022-09-29T03:22:25.797Z,3.52
2022-09-29T03:24:54.371Z,3.47
2022-09-29T03:27:23.098Z,3.43
2022-09-29T03:29:51.678Z,3.29
2022-09-29T03:32:20.260Z,3.17
2022-09-29T03:34:48.839Z,3.02
2022-09-29T03:37:17.435Z,3.09
2022-09-29T03:39:46.047Z,3.18
2022-09-29T03:42:14.677Z,3.20
2022-09-29T03:44:43.437Z,3.25
2022-09-29T03:47:12.217Z,3.17
2022-09-29T03:49:40.809Z,3.26
2022-09-29T03:52:09.364Z,3.38
2022-09-29T03:54:38.070Z,3.48
2022-09-29T03:57:06.734Z,3.53
2022-09-29T03:59:35.473Z,3.54
2022-09-29T04:02:05.235Z,3.55
2022-09-29T04:04:35.810Z,3.51
2022-09-29T04:07:04.431Z,3.51
2022-09-29T04:09:32.962Z,3.53
2022-09-29T04:12:01.728Z,3.53
2022-09-29T04:14:30.425Z,3.51
2022-09-29T04:16:58.958Z,3.53
2022-09-29T04:19:28.102Z,3.46
2022-09-29T04:21:56.645Z,3.43
2022-09-29T04:24:25.457Z,3.42
2022-09-29T04:26:54.312Z,3.42
2022-09-29T04:29:23.301Z,3.43
2022-09-29T04:31:52.035Z,3.44
2022-09-29T04:34:21.095Z,3.54
2022-09-29T04:36:51.600Z,3.55
2022-09-29T04:39:20.471Z,3.51
2022-09-29T04:41:49.188Z,3.48
2022-09-29T04:44:20.729Z,3.51
2022-09-29T04:46:52.521Z,3.48
2022-09-29T04:49:21.536Z,3.51
2022-09-29T04:51:50.467Z,3.53
2022-09-29T04:54:19.162Z,3.60
2022-09-29T04:56:51.461Z,3.60
2022-09-29T04:59:20.142Z,3.64
2022-09-29T05:01:50.851Z,3.70
2022-09-29T05:04:19.803Z,3.73
2022-09-29T05:06:48.366Z,3.75
2022-09-29T05:09:16.951Z,3.75
2022-09-29T05:11:45.673Z,3.76
2022-09-29T05:14:14.370Z,3.82
2022-09-29T05:16:43.065Z,3.91
2022-09-29T05:19:11.782Z,3.93
2022-09-29T05:21:41.332Z,4.03
2022-09-29T05:24:10.074Z,4.10
2022-09-29T05:26:38.725Z,4.21
2022-09-29T05:29:08.900Z,4.21
2022-09-29T05:31:37.557Z,4.42
2022-09-29T05:34:06.328Z,4.41
2022-09-29T05:36:34.965Z,4.54
2022-09-29T05:39:04.336Z,4.61
2022-09-29T05:41:33.041Z,4.67
2022-09-29T05:44:02.088Z,4.73
2022-09-29T05:46:31.024Z,4.77
2022-09-29T05:48:59.611Z,4.77
2022-09-29T05:51:29.541Z,4.76
2022-09-29T05:53:58.316Z,4.78
2022-09-29T05:56:27.798Z,4.82
2022-09-29T05:58:57.545Z,4.87
2022-09-29T06:01:27.709Z,4.98
2022-09-29T06:03:58.471Z,5.12
2022-09-29T06:06:29.234Z,5.29
2022-09-29T06:08:59.805Z,5.57
2022-09-29T06:11:32.422Z,5.72
2022-09-29T06:14:03.019Z,5.91
2022-09-29T06:16:33.643Z,6.07
2022-09-29T06:19:04.533Z,6.22
2022-09-29T06:21:35.780Z,6.36
2022-09-29T06:24:05.242Z,6.40
2022-09-29T06:26:34.107Z,6.51
2022-09-29T06:29:03.186Z,6.69
2022-09-29T06:31:33.989Z,6.82
2022-09-29T06:34:04.854Z,6.73
2022-09-29T06:37:04.445Z,6.68
2022-09-29T06:39:33.171Z,6.62
2022-09-29T06:42:02.371Z,6.46
2022-09-29T06:44:32.779Z,6.26
2022-09-29T06:47:01.862Z,6.04
2022-09-29T06:49:30.746Z,6.04
2022-09-29T06:52:00.009Z,6.03
2022-09-29T06:54:29.857Z,6.10
2022-09-29T06:56:58.505Z,6.15
2022-09-29T06:59:27.296Z,6.18
2022-09-29T07:01:56.886Z,6.19
2022-09-29T07:04:26.151Z,6.12
2022-09-29T07:06:54.736Z,5.99
2022-09-29T07:09:23.697Z,5.91
2022-09-29T07:11:53.020Z,5.82
2022-09-29T07:14:23.837Z,5.70
2022-09-29T07:16:53.758Z,5.65
2022-09-29T07:19:22.846Z,5.58
2022-09-29T07:21:52.172Z,5.53
2022-09-29T07:24:20.772Z,5.55
2022-09-29T07:26:50.114Z,5.46
2022-09-29T07:29:18.789Z,5.44
2022-09-29T07:31:52.036Z,5.41
2022-09-29T07:34:22.210Z,5.42
2022-09-29T07:36:51.607Z,5.49
2022-09-29T07:39:22.385Z,5.55
2022-09-29T07:41:51.490Z,5.62
2022-09-29T07:44:20.179Z,5.65
2022-09-29T07:46:50.382Z,5.60
2022-09-29T07:49:20.006Z,5.68
2022-09-29T07:51:48.668Z,5.72
2022-09-29T07:54:17.473Z,5.71
2022-09-29T07:56:46.354Z,5.76
2022-09-29T07:59:15.275Z,5.76
2022-09-29T08:01:44.398Z,5.78
2022-09-29T08:04:13.463Z,5.76
2022-09-29T08:06:44.451Z,5.82
2022-09-29T08:09:13.779Z,5.79
2022-09-29T08:11:44.758Z,5.73
2022-09-29T08:14:13.535Z,5.68
2022-09-29T08:16:42.140Z,5.65
2022-09-29T08:19:11.493Z,5.61
2022-09-29T08:21:40.233Z,5.58
2022-09-29T08:24:08.902Z,5.57
2022-09-29T08:26:43.756Z,5.53
2022-09-29T08:29:16.970Z,5.49
2022-09-29T08:31:46.738Z,5.41
2022-09-29T08:34:15.895Z,5.42
2022-09-29T08:36:45.524Z,5.39
2022-09-29T08:39:15.876Z,5.37
2022-09-29T08:41:53.889Z,5.28
2022-09-29T08:44:36.674Z,5.27
2022-09-29T08:47:19.503Z,5.27
2022-09-29T08:50:11.420Z,5.26
2022-09-29T08:52:52.122Z,5.23
2022-09-29T08:55:35.150Z,5.21
2022-09-29T08:58:03.863Z,5.18
2022-09-29T09:01:00.496Z,5.18
2022-09-29T09:04:05.881Z,5.26
2022-09-29T09:07:28.383Z,5.24
2022-09-29T09:10:40.998Z,5.21
2022-09-29T09:13:12.313Z,5.17
2022-09-29T09:16:05.552Z,5.12
2022-09-29T09:21:48.210Z,4.93
2022-09-29T09:24:24.764Z,4.88
2022-09-29T09:26:54.833Z,4.82
2022-09-29T09:29:31.566Z,4.87
2022-09-29T09:32:31.263Z,4.90
2022-09-29T09:35:21.746Z,4.89
2022-09-29T09:37:54.430Z,4.91
2022-09-29T09:40:28.094Z,4.85
2022-09-29T09:43:11.734Z,4.82
2022-09-29T09:45:48.499Z,4.78
2022-09-29T09:48:31.689Z,4.77
2022-09-29T09:51:12.797Z,4.77
2022-09-29T09:53:45.621Z,4.73
2022-09-29T09:56:51.375Z,4.71
2022-09-29T09:59:56.703Z,4.71
2022-09-29T10:02:27.226Z,4.68
2022-09-29T10:04:56.791Z,4.67
2022-09-29T10:07:30.716Z,4.66
2022-09-29T10:10:04.534Z,4.62
2022-09-29T10:12:33.260Z,4.67
2022-09-29T10:15:15.989Z,4.63
2022-09-29T10:17:47.478Z,4.69
2022-09-29T10:20:33.038Z,4.67
2022-09-29T10:23:26.473Z,4.67
2022-09-29T10:26:18.957Z,4.65
2022-09-29T10:28:59.888Z,4.66
2022-09-29T10:31:35.282Z,4.67
2022-09-29T10:34:16.718Z,4.63
2022-09-29T10:36:56.783Z,4.59
2022-09-29T10:39:43.722Z,4.54
2022-09-29T10:42:21.155Z,4.51
2022-09-29T10:44:56.075Z,4.43
2022-09-29T10:47:24.841Z,4.31
2022-09-29T10:50:34.810Z,4.30
2022-09-29T10:53:20.264Z,4.38
2022-09-29T10:55:55.540Z,4.36
2022-09-29T10:58:58.885Z,4.37
2022-09-29T11:01:22.759Z,4.36
2022-09-29T11:04:01.896Z,4.32
2022-09-29T11:06:44.071Z,4.27
2022-09-29T11:09:19.389Z,4.32
2022-09-29T11:11:48.302Z,4.36
2022-09-29T11:14:38.564Z,4.36
2022-09-29T11:17:25.175Z,4.39
2022-09-29T11:20:07.362Z,4.40
2022-09-29T11:23:02.291Z,4.44
2022-09-29T11:25:51.363Z,4.40
2022-09-29T11:28:43.474Z,4.33
2022-09-29T11:31:24.138Z,4.31
2022-09-29T11:34:10.914Z,4.28
2022-09-29T11:36:45.188Z,4.25
2022-09-29T11:39:58.989Z,4.23
2022-09-29T11:42:51.861Z,4.22
2022-09-29T11:45:25.574Z,4.16
2022-09-29T11:48:29.896Z,4.17
2022-09-29T11:51:41.341Z,4.16
2022-09-29T11:54:36.775Z,4.11
2022-09-29T11:57:18.693Z,4.09
2022-09-29T12:00:16.995Z,4.12
2022-09-29T12:03:09.182Z,4.06
2022-09-29T12:05:45.555Z,4.10
2022-09-29T12:08:23.714Z,4.09
2022-09-29T12:10:59.168Z,4.08
2022-09-29T12:13:42.412Z,3.99
2022-09-29T12:16:18.667Z,4.06
2022-09-29T12:18:56.667Z,4.07
2022-09-29T12:21:30.705Z,4.05
2022-09-29T12:24:01.818Z,4.06
2022-09-29T12:26:32.627Z,4.01
2022-09-29T12:29:22.995Z,4.00
2022-09-29T12:31:55.323Z,3.98
2022-09-29T12:34:29.844Z,3.98
2022-09-29T12:37:06.368Z,3.99
2022-09-29T12:39:39.872Z,4.02
2022-09-29T12:42:40.480Z,3.99
2022-09-29T12:45:35.219Z,3.97
2022-09-29T12:48:36.397Z,3.96
2022-09-29T12:51:18.520Z,3.93
2022-09-29T12:54:18.131Z,3.90
2022-09-29T12:56:55.447Z,3.87
2022-09-29T12:59:37.812Z,3.85
2022-09-29T13:02:28.699Z,3.88
2022-09-29T13:05:36.231Z,3.89
2022-09-29T13:08:22.881Z,3.90
2022-09-29T13:11:00.977Z,3.89
2022-09-29T13:13:57.087Z,3.92
2022-09-29T13:16:52.781Z,3.93
2022-09-29T13:20:11.003Z,3.94
2022-09-29T13:23:08.059Z,3.95
2022-09-29T13:25:56.209Z,3.89
2022-09-29T13:28:35.821Z,3.87
2022-09-29T13:31:08.490Z,3.84
2022-09-29T13:33:38.314Z,3.86
2022-09-29T13:36:09.592Z,3.84
2022-09-29T13:38:39.900Z,3.80
2022-09-29T13:41:15.765Z,3.84
2022-09-29T13:43:52.773Z,3.86
2022-09-29T13:46:33.025Z,3.85
2022-09-29T13:49:10.218Z,3.82
2022-09-29T13:51:50.790Z,3.78
2022-09-29T13:54:44.434Z,3.74
2022-09-29T13:57:13.009Z,3.73
2022-09-29T13:59:45.849Z,3.73
2022-09-29T14:02:49.118Z,3.73
2022-09-29T14:05:23.865Z,3.71
2022-09-29T14:07:58.293Z,3.72
2022-09-29T14:10:43.566Z,3.73
2022-09-29T14:13:14.536Z,3.73
2022-09-29T14:15:53.018Z,3.68
2022-09-29T14:18:46.403Z,3.65
2022-09-29T14:21:49.075Z,3.66
2022-09-29T14:24:51.005Z,3.68
2022-09-29T14:27:30.962Z,3.69
2022-09-29T14:30:14.457Z,3.72
2022-09-29T14:33:03.198Z,3.71
2022-09-29T14:35:40.752Z,3.68
2022-09-29T14:38:25.708Z,3.67
2022-09-29T14:41:10.840Z,3.67
2022-09-29T14:43:42.341Z,3.66
2022-09-29T14:47:12.126Z,3.65
2022-09-29T14:50:36.193Z,3.58
2022-09-29T14:53:48.953Z,3.49
2022-09-29T14:56:45.729Z,3.43
2022-09-29T14:59:29.212Z,3.36
2022-09-29T15:02:18.779Z,3.33
2022-09-29T15:04:48.403Z,3.37
2022-09-29T15:07:23.648Z,3.41
2022-09-29T15:09:58.258Z,3.43
2022-09-29T15:12:29.819Z,3.43
2022-09-29T15:15:00.683Z,3.43
2022-09-29T15:17:56.070Z,3.46
2022-09-29T15:20:30.918Z,3.48
2022-09-29T15:23:27.810Z,3.48
2022-09-29T15:28:39.715Z,3.47
2022-09-29T15:31:17.578Z,3.50
2022-09-29T15:33:48.327Z,3.49
2022-09-29T15:36:23.544Z,3.48
2022-09-29T15:39:02.931Z,3.46
2022-09-29T15:41:35.022Z,3.47
2022-09-29T15:44:18.761Z,3.47
2022-09-29T15:46:58.208Z,3.42
2022-09-29T15:49:30.638Z,3.46
2022-09-29T15:52:00.993Z,3.43
2022-09-29T15:54:40.933Z,3.37
2022-09-29T15:57:58.513Z,3.35
2022-09-29T16:00:27.813Z,3.34
2022-09-29T16:03:14.402Z,3.29
2022-09-29T16:05:48.575Z,3.25
2022-09-29T16:08:25.735Z,3.23
2022-09-29T16:10:58.060Z,3.21
2022-09-29T16:13:29.496Z,3.20
2022-09-29T16:16:04.180Z,3.14
2022-09-29T16:18:53.425Z,3.16
2022-09-29T16:21:25.914Z,3.17
2022-09-29T16:24:06.621Z,3.21
2022-09-29T16:26:39.061Z,3.19
2022-09-29T16:29:10.614Z,3.17
2022-09-29T16:31:42.103Z,3.13
2022-09-29T16:34:22.536Z,3.10
2022-09-29T16:37:06.726Z,3.06
2022-09-29T16:39:43.312Z,3.05
2022-09-29T16:42:28.156Z,3.01
2022-09-29T16:44:57.439Z,3.05
2022-09-29T16:47:27.882Z,3.04
2022-09-29T16:50:05.532Z,3.02
2022-09-29T16:52:52.324Z,2.97
2022-09-29T16:55:28.107Z,2.97
2022-09-29T16:57:56.664Z,2.97
2022-09-29T17:00:25.941Z,2.96
2022-09-29T17:02:58.657Z,2.90
2022-09-29T17:05:28.465Z,2.90
2022-09-29T17:08:15.732Z,2.85
2022-09-29T17:10:44.296Z,2.84
2022-09-29T17:13:16.371Z,2.78
2022-09-29T17:15:47.510Z,2.77
2022-09-29T17:18:17.802Z,2.68
2022-09-29T17:20:47.000Z,2.74
2022-09-29T17:23:15.563Z,2.65
2022-09-29T17:25:46.539Z,2.68
2022-09-29T17:28:24.445Z,2.67
2022-09-29T17:30:55.999Z,2.56
2022-09-29T17:33:25.191Z,2.56
2022-09-29T17:35:55.756Z,2.47
2022-09-29T17:38:24.979Z,2.49
2022-09-29T17:40:57.714Z,2.46
2022-09-29T17:43:26.359Z,2.48
2022-09-29T17:45:59.957Z,2.49
2022-09-29T17:48:29.829Z,2.46
2022-09-29T17:50:59.814Z,2.49
2022-09-29T17:53:28.500Z,2.35
2022-09-29T17:55:58.502Z,2.47
2022-09-29T17:58:27.039Z,2.49
2022-09-29T18:00:58.125Z,2.46
2022-09-29T18:03:27.269Z,2.47
2022-09-29T18:05:57.279Z,2.46
2022-09-29T18:08:27.550Z,2.50
2022-09-29T18:10:58.534Z,2.45
2022-09-29T18:13:28.813Z,2.43
2022-09-29T18:15:58.859Z,2.34
2022-09-29T18:18:27.826Z,2.33
2022-09-29T18:20:56.787Z,2.36
2022-09-29T18:23:25.452Z,2.34
2022-09-29T18:25:54.427Z,2.35
2022-09-29T18:28:23.133Z,2.35
2022-09-29T18:31:14.313Z,2.30
2022-09-29T18:33:42.921Z,2.26
2022-09-29T18:36:12.579Z,2.27
2022-09-29T18:38:41.145Z,2.29
2022-09-29T18:41:20.363Z,2.26
2022-09-29T18:43:50.167Z,2.22
2022-09-29T18:46:18.948Z,2.23
2022-09-29T18:48:47.611Z,2.21
2022-09-29T18:51:21.096Z,2.20
2022-09-29T18:53:51.327Z,2.17
2022-09-29T18:56:19.940Z,2.13
2022-09-29T18:58:48.862Z,2.00
2022-09-29T19:01:25.927Z,2.05
2022-09-29T19:03:54.863Z,2.00
2022-09-29T19:06:23.487Z,1.98
2022-09-29T19:08:52.637Z,1.95
2022-09-29T19:11:23.555Z,1.91
2022-09-29T19:13:54.757Z,1.90
2022-09-29T19:16:24.682Z,1.93
2022-09-29T19:18:53.463Z,1.87
2022-09-29T19:21:22.009Z,1.90
2022-09-29T19:23:50.587Z,1.95
2022-09-29T19:26:22.913Z,1.97
2022-09-29T19:28:51.872Z,1.95
2022-09-29T19:31:21.910Z,1.92
2022-09-29T19:33:51.307Z,1.88
2022-09-29T19:36:22.459Z,1.87
2022-09-29T19:38:51.698Z,1.83
2022-09-29T19:41:23.733Z,1.75
2022-09-29T19:43:53.184Z,1.69
2022-09-29T19:46:22.946Z,1.72
2022-09-29T19:48:51.749Z,1.76
2022-09-29T19:51:38.717Z,1.76
2022-09-29T19:54:12.298Z,1.78
2022-09-29T19:56:43.877Z,1.77
2022-09-29T19:59:15.154Z,1.75
2022-09-29T20:01:45.974Z,1.76
2022-09-29T20:04:15.117Z,1.74
2022-09-29T20:06:44.597Z,1.74
2022-09-29T20:09:13.953Z,1.73
2022-09-29T20:11:42.833Z,1.77
2022-09-29T20:14:14.114Z,1.74
2022-09-29T20:16:45.856Z,1.65
2022-09-29T20:19:17.357Z,1.71
2022-09-29T20:21:49.481Z,1.65
2022-09-29T20:24:20.461Z,1.63
2022-09-29T20:26:49.457Z,1.61
2022-09-29T20:29:20.194Z,1.64
2022-09-29T20:31:49.098Z,1.62
2022-09-29T20:34:22.830Z,1.62
2022-09-29T20:36:54.713Z,1.55
2022-09-29T20:39:26.034Z,1.59
2022-09-29T20:41:55.782Z,1.64
2022-09-29T20:44:26.152Z,1.61
2022-09-29T20:46:56.320Z,1.61
2022-09-29T20:49:26.946Z,1.60
2022-09-29T20:51:55.676Z,1.64
2022-09-29T20:54:24.310Z,1.65
2022-09-29T20:56:54.124Z,1.70
2022-09-29T20:59:24.149Z,1.72
2022-09-29T21:01:54.270Z,1.69
2022-09-29T21:04:23.732Z,1.67
2022-09-29T21:06:53.394Z,1.74
2022-09-29T21:09:24.552Z,1.73
2022-09-29T21:11:55.281Z,1.73
2022-09-29T21:14:28.262Z,1.68
2022-09-29T21:16:58.691Z,1.72
2022-09-29T21:19:27.457Z,1.72
2022-09-29T21:21:56.527Z,1.69
2022-09-29T21:24:25.276Z,1.73
2022-09-29T21:26:54.098Z,1.77
2022-09-29T21:29:22.809Z,1.80
2022-09-29T21:31:51.553Z,1.84
2022-09-29T21:34:21.505Z,1.80
2022-09-29T21:36:50.205Z,1.84
2022-09-29T21:39:18.919Z,1.85
2022-09-29T21:41:48.192Z,1.90
2022-09-29T21:44:19.630Z,1.79
2022-09-29T21:46:48.704Z,1.92
2022-09-29T21:49:19.768Z,1.91
2022-09-29T21:51:50.362Z,1.90
2022-09-29T21:54:25.655Z,1.86
2022-09-29T21:56:54.729Z,1.89
2022-09-29T21:59:24.245Z,1.91
2022-09-29T22:01:53.375Z,1.88
2022-09-29T22:04:22.457Z,1.83
2022-09-29T22:06:51.089Z,1.88
2022-09-29T22:09:21.510Z,1.88
2022-09-29T22:11:50.659Z,1.87
2022-09-29T22:14:19.798Z,1.88
2022-09-29T22:16:48.557Z,1.86
2022-09-29T22:19:25.208Z,1.89
2022-09-29T22:21:55.228Z,1.88
2022-09-29T22:24:24.786Z,1.91
2022-09-29T22:26:53.550Z,1.88
2022-09-29T22:29:22.293Z,1.88
2022-09-29T22:31:51.401Z,1.90
2022-09-29T22:34:20.141Z,1.88
2022-09-29T22:36:48.796Z,1.85
2022-09-29T22:39:17.453Z,1.90
2022-09-29T22:41:46.144Z,1.92
2022-09-29T22:44:14.775Z,1.92
2022-09-29T22:46:43.437Z,1.95
2022-09-29T22:49:12.171Z,1.97
2022-09-29T22:51:40.737Z,1.94
2022-09-29T22:54:09.414Z,1.97
2022-09-29T22:56:40.327Z,1.98
2022-09-29T22:59:10.615Z,2.01
2022-09-29T23:01:39.541Z,2.02
2022-09-29T23:04:08.609Z,1.98
2022-09-29T23:06:37.413Z,1.97
2022-09-29T23:09:06.770Z,2.02
2022-09-29T23:11:36.504Z,2.04
2022-09-29T23:14:05.083Z,2.00
2022-09-29T23:16:33.835Z,1.96
2022-09-29T23:19:02.514Z,2.02
2022-09-29T23:21:31.435Z,2.07
2022-09-29T23:24:02.171Z,2.02
2022-09-29T23:26:31.530Z,2.05
2022-09-29T23:29:00.671Z,1.96
2022-09-29T23:31:29.303Z,2.00
2022-09-29T23:34:00.601Z,2.02
2022-09-29T23:36:31.199Z,2.02
2022-09-29T23:39:14.369Z,2.03
2022-09-29T23:41:51.691Z,2.03
2022-09-29T23:44:25.612Z,2.06
2022-09-29T23:46:56.010Z,2.06
2022-09-29T23:49:27.819Z,2.06
2022-09-29T23:51:59.667Z,2.08
2022-09-29T23:54:32.750Z,2.09
2022-09-29T23:57:01.510Z,2.11
2022-09-29T23:59:30.630Z,2.13
